Time;durP1;ratioP1;P1;durP2;ratioP2;P2;SDS_P1;SDS_P2;PMS_P1;PMS_P2;Temp;Humidity;BMP_temperature;BMP_pressure;BME280_temperature;BME280_humidity;BME280_pressure;Samples;Min_cycle;Max_cycle;Signal;HPM_P1;HPM_P2
2023/05/12 00:00:39;;;;;;;;;6.00;5.00;;;;;16.35;49.75;101024.03;4965575;28;45990;-60
2023/05/12 00:03:04;;;;;;;;;3.50;2.50;;;;;16.32;49.70;101015.38;4921096;28;45496;-60
2023/05/12 00:05:30;;;;;;;;;2.00;2.00;;;;;16.39;49.22;101030.75;4916126;28;45756;-60
2023/05/12 00:07:55;;;;;;;;;1.50;1.50;;;;;16.28;49.73;101034.41;4915601;28;46007;-60
2023/05/12 00:10:21;;;;;;;;;1.00;1.00;;;;;16.33;49.37;101028.94;4930391;28;45402;-60
2023/05/12 00:12:46;;;;;;;;;1.50;1.50;;;;;16.38;49.55;101028.22;4916341;28;45329;-60
2023/05/12 00:15:12;;;;;;;;;3.00;2.00;;;;;16.38;49.43;101017.13;4915683;28;45441;-61
2023/05/12 00:17:38;;;;;;;;;2.75;2.00;;;;;16.37;49.45;101013.53;4915909;28;46034;-61
2023/05/12 00:20:04;;;;;;;;;2.00;2.00;;;;;16.44;49.38;101024.47;4915433;28;45401;-61
2023/05/12 00:22:30;;;;;;;;;1.60;1.60;;;;;16.43;49.05;101024.72;4930277;28;45286;-60
2023/05/12 00:24:55;;;;;;;;;3.00;2.00;;;;;16.26;49.59;101022.69;4915914;28;45555;-60
2023/05/12 00:27:21;;;;;;;;;1.00;1.00;;;;;16.16;49.51;101001.16;4915334;28;45580;-60
2023/05/12 00:29:46;;;;;;;;;4.00;3.00;;;;;16.25;50.01;101023.78;4915966;28;45388;-60
2023/05/12 00:32:12;;;;;;;;;3.00;1.25;;;;;16.34;49.53;101016.78;4915294;28;45258;-60
2023/05/12 00:34:37;;;;;;;;;2.25;2.00;;;;;16.41;49.02;101022.19;4915409;28;45410;-60
2023/05/12 00:37:03;;;;;;;;;8.75;4.75;;;;;16.38;49.31;101023.53;4915472;28;45664;-60
2023/05/12 00:39:28;;;;;;;;;9.75;7.25;;;;;16.35;49.42;101028.72;4915606;28;45330;-60
2023/05/12 00:41:55;;;;;;;;;6.75;6.50;;;;;16.37;49.13;101026.53;4915634;28;45215;-59
2023/05/12 00:44:21;;;;;;;;;9.00;7.20;;;;;16.31;49.24;101028.34;4915789;28;45302;-59
2023/05/12 00:46:46;;;;;;;;;9.75;7.50;;;;;16.29;49.46;101025.00;4915552;28;45937;-59
2023/05/12 00:49:12;;;;;;;;;3.00;2.25;;;;;16.25;49.22;101023.78;4914210;28;45291;-59
2023/05/12 00:51:37;;;;;;;;;7.50;7.50;;;;;16.30;49.31;101025.81;4915732;28;45420;-59
2023/05/12 00:54:03;;;;;;;;;8.25;7.25;;;;;16.27;49.34;101002.22;4930886;28;45526;-61
2023/05/12 00:56:28;;;;;;;;;6.25;3.75;;;;;16.33;49.22;101017.03;4915156;28;45988;-60
2023/05/12 00:58:54;;;;;;;;;4.75;4.75;;;;;16.37;49.01;101021.00;4915763;28;45397;-59
2023/05/12 01:01:20;;;;;;;;;3.00;3.00;;;;;16.26;49.05;101006.94;4915899;28;45408;-59
2023/05/12 01:03:45;;;;;;;;;3.00;2.00;;;;;16.26;48.86;101008.84;4993630;28;45334;-61
2023/05/12 01:06:28;;;;;;;;;2.00;2.00;;;;;16.22;48.93;101013.22;5016168;28;45729;-59
2023/05/12 01:08:54;;;;;;;;;4.00;2.80;;;;;16.27;48.93;101013.31;5016024;28;45515;-60
2023/05/12 01:11:20;;;;;;;;;2.00;2.00;;;;;16.23;48.33;101007.41;5030552;28;45323;-59
2023/05/12 01:13:46;;;;;;;;;1.80;1.80;;;;;16.27;49.09;101010.53;5015787;28;45418;-60
2023/05/12 01:16:12;;;;;;;;;2.00;1.25;;;;;16.17;48.59;101013.91;4995020;28;45385;-62
2023/05/12 01:18:38;;;;;;;;;1.00;1.00;;;;;16.13;49.13;101009.97;4930885;28;45465;-60
2023/05/12 01:21:03;;;;;;;;;2.50;2.00;;;;;16.12;48.62;100998.03;4913881;28;45379;-60
2023/05/12 01:23:35;;;;;;;;;2.50;2.00;;;;;16.17;48.73;101024.16;4915353;28;45424;-60
2023/05/12 01:26:07;;;;;;;;;1.00;1.00;;;;;16.07;49.08;101022.84;4915095;28;46452;-60
2023/05/12 01:28:34;;;;;;;;;3.00;2.00;;;;;16.05;49.07;101016.72;4930149;28;45507;-60
2023/05/12 01:30:59;;;;;;;;;4.60;3.20;;;;;15.92;49.39;101015.06;4913596;28;45393;-60
2023/05/12 01:33:25;;;;;;;;;1.50;1.25;;;;;15.95;48.92;101017.31;4946009;28;45602;-60
2023/05/12 01:35:50;;;;;;;;;2.25;2.25;;;;;16.00;49.00;101011.06;4945192;28;45558;-60
2023/05/12 01:38:15;;;;;;;;;1.50;1.50;;;;;16.10;49.06;101019.59;4913837;28;45390;-60
2023/05/12 01:40:41;;;;;;;;;4.75;4.75;;;;;16.15;49.15;101006.94;4915145;28;45349;-60
2023/05/12 01:43:06;;;;;;;;;3.00;2.00;;;;;16.11;48.95;101012.97;4915227;28;45626;-60
2023/05/12 01:45:32;;;;;;;;;3.50;1.00;;;;;16.15;48.91;101013.34;4913983;28;46422;-61
2023/05/12 01:47:57;;;;;;;;;2.00;2.00;;;;;15.97;49.03;101017.09;4945611;28;45374;-61
2023/05/12 01:50:23;;;;;;;;;2.50;2.50;;;;;15.94;49.25;101014.78;4945926;28;45360;-61
2023/05/12 01:52:48;;;;;;;;;1.00;1.00;;;;;16.04;49.53;101011.41;4913732;28;45330;-61
2023/05/12 01:55:15;;;;;;;;;3.00;3.00;;;;;16.06;49.22;101012.03;4914764;28;46435;-60
2023/05/12 01:57:40;;;;;;;;;2.00;2.00;;;;;16.11;49.35;101012.97;4914685;28;45417;-61
2023/05/12 02:00:06;;;;;;;;;4.50;3.00;;;;;16.12;49.35;101006.34;4914696;28;45426;-61
2023/05/12 02:02:33;;;;;;;;;4.80;2.00;;;;;16.08;49.68;101012.63;4915068;28;45347;-59
2023/05/12 02:04:58;;;;;;;;;3.00;3.00;;;;;15.98;49.75;101011.31;4929174;28;47426;-59
2023/05/12 02:07:24;;;;;;;;;3.75;2.50;;;;;15.91;50.21;101002.22;4914167;28;45308;-59
2023/05/12 02:09:49;;;;;;;;;2.50;1.50;;;;;15.90;49.59;100994.19;4915074;28;45203;-61
2023/05/12 02:12:15;;;;;;;;;4.50;2.00;;;;;15.94;49.94;101021.19;4914455;28;45291;-61
2023/05/12 02:14:41;;;;;;;;;2.00;2.00;;;;;15.89;50.01;101007.19;4914447;28;45407;-60
2023/05/12 02:17:06;;;;;;;;;0.00;0.00;;;;;15.92;50.12;101014.19;4914011;28;45371;-61
2023/05/12 02:19:32;;;;;;;;;5.25;3.00;;;;;15.80;50.63;100995.63;4914766;28;45255;-60
2023/05/12 02:21:57;;;;;;;;;5.50;4.00;;;;;15.65;50.44;100987.84;4914301;28;45408;-60
2023/05/12 02:24:22;;;;;;;;;3.50;2.00;;;;;15.84;50.95;101018.97;4928598;28;47450;-60
2023/05/12 02:26:48;;;;;;;;;4.50;3.25;;;;;15.86;50.60;101014.03;4928881;28;45297;-60
2023/05/12 02:29:13;;;;;;;;;2.50;2.50;;;;;15.81;51.18;101015.84;4897483;28;45538;-60
2023/05/12 02:31:39;;;;;;;;;3.00;3.00;;;;;15.76;51.25;101016.56;4964918;28;45317;-60
2023/05/12 02:34:04;;;;;;;;;6.00;3.50;;;;;15.64;51.57;101007.44;4963816;28;46634;-61
2023/05/12 02:36:31;;;;;;;;;3.00;3.00;;;;;15.69;51.79;101015.84;4933273;28;45352;-61
2023/05/12 02:38:57;;;;;;;;;2.40;2.40;;;;;15.55;51.88;101016.09;4933840;28;45483;-60
2023/05/12 02:41:22;;;;;;;;;3.80;2.80;;;;;15.56;52.00;101008.63;4933649;28;45354;-60
2023/05/12 02:43:48;;;;;;;;;2.00;2.00;;;;;15.54;51.96;100999.72;4964401;28;48005;-60
2023/05/12 02:46:13;;;;;;;;;5.00;2.50;;;;;15.64;51.95;101011.03;4933387;28;45412;-60
2023/05/12 02:48:39;;;;;;;;;3.00;3.00;;;;;15.64;51.53;101011.03;4934050;28;45469;-60
2023/05/12 02:51:04;;;;;;;;;2.25;2.25;;;;;15.68;51.79;101015.00;4964369;28;45507;-59
2023/05/12 02:53:30;;;;;;;;;4.75;3.50;;;;;15.63;51.54;101000.22;4964151;28;48532;-59
2023/05/12 02:55:55;;;;;;;;;3.25;3.25;;;;;15.67;51.48;101016.09;4933407;28;45412;-59
2023/05/12 02:58:21;;;;;;;;;1.00;1.00;;;;;15.67;51.61;101018.84;4963813;28;45332;-59
2023/05/12 03:00:46;;;;;;;;;3.00;2.00;;;;;15.62;51.73;101018.72;4933699;28;45345;-59
2023/05/12 03:03:12;;;;;;;;;2.00;2.00;;;;;15.58;51.94;101012.84;4926872;28;45405;-59
2023/05/12 03:05:37;;;;;;;;;2.25;2.25;;;;;15.54;52.14;101019.91;4913826;28;45417;-59
2023/05/12 03:08:03;;;;;;;;;3.00;3.00;;;;;15.44;51.99;100992.00;4928787;28;45216;-59
2023/05/12 03:10:29;;;;;;;;;1.75;1.25;;;;;15.47;52.29;100997.06;4914252;28;45384;-61
2023/05/12 03:12:54;;;;;;;;;2.50;2.50;;;;;15.52;52.19;101010.19;4928392;28;45565;-61
2023/05/12 03:15:20;;;;;;;;;2.50;1.50;;;;;15.54;52.04;101016.31;4913905;28;45480;-61
2023/05/12 03:17:45;;;;;;;;;2.50;2.50;;;;;15.54;51.94;101013.56;4913903;28;45537;-61
2023/05/12 03:20:11;;;;;;;;;4.75;1.75;;;;;15.44;51.96;101003.06;4914289;28;45438;-61
2023/05/12 03:22:36;;;;;;;;;3.00;3.00;;;;;15.44;51.97;101014.97;4913399;28;45602;-61
2023/05/12 03:25:03;;;;;;;;;7.25;3.75;;;;;15.37;52.60;101010.66;4913947;28;45438;-61
2023/05/12 03:27:31;;;;;;;;;2.60;2.60;;;;;15.35;52.80;101010.88;4912511;28;45426;-61
2023/05/12 03:29:59;;;;;;;;;6.20;2.00;;;;;15.42;52.62;101002.47;4914363;28;45222;-61
2023/05/12 03:32:24;;;;;;;;;2.60;2.60;;;;;15.38;52.84;101006.78;4913395;28;45845;-61
2023/05/12 03:34:50;;;;;;;;;2.50;2.50;;;;;15.28;52.86;101005.47;4914922;28;45616;-61
2023/05/12 03:37:15;;;;;;;;;3.75;3.00;;;;;15.24;53.40;101015.31;4916962;28;45447;-60
2023/05/12 03:39:41;;;;;;;;;3.25;2.00;;;;;15.30;52.86;101013.50;4916527;28;45372;-60
2023/05/12 03:42:06;;;;;;;;;5.00;4.00;;;;;15.25;53.06;101014.22;4916355;28;45912;-60
2023/05/12 03:44:32;;;;;;;;;4.00;3.00;;;;;15.30;53.41;101010.72;4916419;28;45336;-60
2023/05/12 03:46:57;;;;;;;;;1.50;1.50;;;;;15.26;53.12;101002.06;4907890;28;45899;-60
2023/05/12 03:49:23;;;;;;;;;4.00;2.25;;;;;15.37;52.81;101014.22;4925026;28;45577;-60
2023/05/12 03:51:48;;;;;;;;;4.00;3.00;;;;;15.28;53.01;101005.47;4935479;28;45975;-60
2023/05/12 03:54:14;;;;;;;;;4.50;3.00;;;;;15.25;52.86;101000.41;4935818;28;45439;-60
2023/05/12 03:56:39;;;;;;;;;5.25;3.75;;;;;15.28;52.81;101007.38;4935461;28;45340;-60
2023/05/12 03:59:05;;;;;;;;;5.75;4.50;;;;;15.26;53.31;101010.38;4935778;28;45523;-60
2023/05/12 04:01:30;;;;;;;;;3.00;3.00;;;;;15.18;53.44;101011.56;4935704;28;45353;-61
2023/05/12 04:03:56;;;;;;;;;3.75;3.75;;;;;15.09;53.14;101006.63;4926441;28;45358;-59
2023/05/12 04:06:21;;;;;;;;;3.50;2.00;;;;;15.17;53.08;101011.81;4916411;28;45424;-59
2023/05/12 04:08:47;;;;;;;;;3.75;3.00;;;;;15.12;52.88;101003.38;4930573;28;45381;-60
2023/05/12 04:11:12;;;;;;;;;3.00;3.00;;;;;15.06;52.70;100996.00;4916036;28;45302;-60
2023/05/12 04:13:38;;;;;;;;;4.00;4.00;;;;;15.06;53.12;101013.47;5024690;28;45442;-60
2023/05/12 04:16:04;;;;;;;;;3.00;2.00;;;;;15.09;52.71;101014.91;5016516;28;45338;-60
2023/05/12 04:18:29;;;;;;;;;2.75;2.75;;;;;15.11;52.85;101007.22;5015632;28;45341;-60
2023/05/12 04:20:55;;;;;;;;;4.00;2.00;;;;;15.16;52.75;101008.19;5048062;28;47632;-59
2023/05/12 04:23:20;;;;;;;;;6.00;3.75;;;;;15.07;52.22;100993.03;5016338;28;45381;-60
2023/05/12 04:25:46;;;;;;;;;4.00;3.75;;;;;15.14;52.43;101007.59;5016631;28;45410;-60
2023/05/12 04:28:11;;;;;;;;;4.75;2.75;;;;;15.07;52.38;101012.38;5048554;28;45307;-60
2023/05/12 04:30:40;;;;;;;;;4.00;2.00;;;;;15.12;52.25;101008.91;5016599;28;46265;-60
2023/05/12 04:33:06;;;;;;;;;3.40;3.40;;;;;15.07;52.57;101003.22;5015968;28;45353;-58
2023/05/12 04:35:32;;;;;;;;;3.60;3.60;;;;;15.19;52.23;101023.47;5016454;28;45576;-59
2023/05/12 04:38:00;;;;;;;;;2.00;2.00;;;;;15.21;52.48;101017.69;5016727;28;45310;-59
2023/05/12 04:40:25;;;;;;;;;17.60;11.20;;;;;15.15;52.39;101016.69;5016411;28;47486;-59
2023/05/12 04:42:51;;;;;;;;;18.25;12.00;;;;;15.13;52.45;101019.72;5016566;28;45305;-59
2023/05/12 04:45:16;;;;;;;;;7.50;3.00;;;;;15.01;52.01;101008.59;5015704;28;45447;-59
2023/05/12 04:47:42;;;;;;;;;4.25;2.25;;;;;15.03;52.12;101017.53;5048002;28;45426;-59
2023/05/12 04:50:09;;;;;;;;;2.75;2.75;;;;;15.03;52.06;101020.28;5015180;28;45475;-59
2023/05/12 04:52:35;;;;;;;;;2.20;2.00;;;;;14.98;51.74;101031.22;5002302;28;45386;-59
2023/05/12 04:55:00;;;;;;;;;4.00;4.00;;;;;14.97;51.93;101015.69;5013428;28;45413;-60
2023/05/12 04:57:26;;;;;;;;;2.75;2.75;;;;;15.01;51.58;101022.44;5045641;28;45625;-59
2023/05/12 04:59:52;;;;;;;;;3.00;3.00;;;;;15.09;51.30;101026.78;5016076;28;46671;-60
2023/05/12 05:02:17;;;;;;;;;3.00;1.75;;;;;15.12;50.56;101028.25;5016093;28;45370;-59
2023/05/12 05:04:43;;;;;;;;;4.00;4.00;;;;;15.13;50.47;101032.69;4979944;28;45404;-60
2023/05/12 05:07:08;;;;;;;;;2.00;2.00;;;;;15.09;50.24;101031.50;4915775;28;45373;-60
2023/05/12 05:09:34;;;;;;;;;4.00;1.75;;;;;15.17;50.02;101036.69;4915546;28;45337;-60
2023/05/12 05:11:59;;;;;;;;;2.50;2.50;;;;;15.15;48.92;101041.59;4915062;28;45306;-60
2023/05/12 05:14:25;;;;;;;;;5.00;2.25;;;;;15.06;48.64;101029.19;4945992;28;45372;-60
2023/05/12 05:16:50;;;;;;;;;2.00;2.00;;;;;15.14;48.92;101040.75;4915933;28;45483;-60
2023/05/12 05:19:16;;;;;;;;;5.25;3.50;;;;;15.14;48.52;101038.00;4929771;28;46256;-60
2023/05/12 05:21:41;;;;;;;;;2.25;2.25;;;;;15.06;48.42;101029.19;4946165;28;45458;-60
2023/05/12 05:24:07;;;;;;;;;3.00;2.25;;;;;15.02;48.33;101053.69;4915296;28;45364;-60
2023/05/12 05:26:33;;;;;;;;;2.00;2.00;;;;;15.10;48.60;101053.34;4915675;28;45325;-60
2023/05/12 05:28:58;;;;;;;;;3.00;1.50;;;;;15.12;48.04;101053.97;4945994;28;45746;-60
2023/05/12 05:31:24;;;;;;;;;3.50;3.50;;;;;15.10;48.89;101055.28;4915294;28;45323;-61
2023/05/12 05:33:50;;;;;;;;;3.80;2.00;;;;;15.16;48.80;101057.13;4915482;28;45331;-61
2023/05/12 05:36:15;;;;;;;;;3.75;1.75;;;;;15.21;48.24;101053.63;4915011;28;45354;-60
2023/05/12 05:38:41;;;;;;;;;2.00;2.00;;;;;15.25;48.50;101052.94;4914734;28;45471;-59
2023/05/12 05:41:07;;;;;;;;;2.00;2.00;;;;;15.22;47.89;101055.31;4915340;28;45292;-61
2023/05/12 05:43:32;;;;;;;;;5.00;2.00;;;;;15.16;47.78;101059.88;4915165;28;45422;-61
2023/05/12 05:45:57;;;;;;;;;4.25;3.50;;;;;15.13;47.72;101058.44;4915599;28;45258;-61
2023/05/12 05:48:23;;;;;;;;;3.50;2.25;;;;;15.10;47.93;101055.28;4914514;28;45789;-61
2023/05/12 05:50:50;;;;;;;;;3.25;3.25;;;;;15.04;48.33;101057.91;4929575;28;45398;-61
2023/05/12 05:53:17;;;;;;;;;2.80;2.00;;;;;15.06;48.14;101063.22;4915120;28;45359;-61
2023/05/12 05:55:43;;;;;;;;;3.00;1.80;;;;;15.07;48.11;101062.13;4914972;28;45448;-61
2023/05/12 05:58:08;;;;;;;;;5.25;4.25;;;;;15.04;48.21;101057.91;4914473;28;46444;-60
2023/05/12 06:00:34;;;;;;;;;3.75;3.25;;;;;15.08;47.99;101055.53;4945268;28;45445;-61
2023/05/12 06:03:00;;;;;;;;;3.00;3.00;;;;;15.00;48.25;101059.44;4945650;28;45357;-61
2023/05/12 06:05:25;;;;;;;;;3.50;1.00;;;;;15.03;48.15;101061.75;5024510;28;45595;-61
2023/05/12 06:07:51;;;;;;;;;3.00;2.00;;;;;14.91;47.92;101047.88;4956383;28;45795;-59
2023/05/12 06:10:16;;;;;;;;;5.50;3.75;;;;;14.92;47.69;101045.97;4914873;28;45312;-60
2023/05/12 06:12:42;;;;;;;;;2.00;2.00;;;;;15.00;47.71;101056.69;4914395;28;45280;-61
2023/05/12 06:15:08;;;;;;;;;3.00;3.00;;;;;15.07;48.00;101058.50;4915238;28;45219;-60
2023/05/12 06:17:33;;;;;;;;;4.40;2.60;;;;;15.11;47.80;101060.56;4914578;28;47971;-60
2023/05/12 06:19:59;;;;;;;;;5.75;3.00;;;;;15.08;48.07;101058.28;4914375;28;45343;-60
2023/05/12 06:22:24;;;;;;;;;3.25;2.00;;;;;15.12;47.04;101051.22;4929192;28;45342;-60
2023/05/12 06:24:51;;;;;;;;;3.50;3.00;;;;;15.13;47.52;101054.81;4914442;28;45563;-60
2023/05/12 06:27:16;;;;;;;;;4.40;3.20;;;;;15.20;47.45;101065.78;4913471;28;46704;-61
2023/05/12 06:29:42;;;;;;;;;3.50;3.50;;;;;15.22;47.42;101058.09;4913943;28;45389;-61
2023/05/12 06:32:07;;;;;;;;;1.50;1.50;;;;;15.23;47.66;101068.06;4914849;28;45421;-60
2023/05/12 06:34:33;;;;;;;;;4.00;4.00;;;;;15.22;47.48;101055.31;4929219;28;45370;-61
2023/05/12 06:36:58;;;;;;;;;3.25;2.25;;;;;15.25;47.33;101052.06;4914207;28;46203;-60
2023/05/12 06:39:24;;;;;;;;;3.00;2.50;;;;;15.24;47.36;101058.69;4914495;28;45378;-61
2023/05/12 06:41:49;;;;;;;;;3.50;2.50;;;;;15.22;47.41;101067.25;4914901;28;45573;-60
2023/05/12 06:44:15;;;;;;;;;4.75;3.50;;;;;15.11;47.59;101068.84;4914949;28;45525;-60
2023/05/12 06:46:40;;;;;;;;;4.00;3.00;;;;;15.08;47.79;101071.25;4929148;28;45691;-60
2023/05/12 06:49:06;;;;;;;;;2.25;2.25;;;;;15.06;47.63;101073.41;4929270;28;45275;-60
2023/05/12 06:51:32;;;;;;;;;3.00;2.50;;;;;15.03;47.95;101058.13;4915036;28;45277;-60
2023/05/12 06:53:58;;;;;;;;;2.00;2.00;;;;;15.03;47.91;101074.72;4914587;28;46119;-60
2023/05/12 06:56:24;;;;;;;;;4.00;4.00;;;;;15.05;47.83;101072.56;4929122;28;46460;-61
2023/05/12 06:58:51;;;;;;;;;3.75;3.25;;;;;14.99;48.29;101062.47;4914278;28;45371;-60
2023/05/12 07:01:17;;;;;;;;;6.00;3.00;;;;;15.17;48.62;101067.91;4929386;28;45477;-60
2023/05/12 07:03:42;;;;;;;;;3.80;2.40;;;;;15.25;48.12;101075.06;4922228;28;45455;-60
2023/05/12 07:06:08;;;;;;;;;3.00;3.00;;;;;15.22;48.27;101067.25;5014514;28;45700;-60
2023/05/12 07:08:33;;;;;;;;;4.50;3.75;;;;;15.31;48.23;101064.97;5013814;28;45450;-60
2023/05/12 07:10:59;;;;;;;;;3.00;3.00;;;;;15.35;48.10;101066.19;5014256;28;45428;-60
2023/05/12 07:13:25;;;;;;;;;5.20;3.00;;;;;15.30;48.35;101069.66;5014642;28;45547;-59
2023/05/12 07:15:50;;;;;;;;;4.00;4.00;;;;;15.29;48.91;101070.75;5046607;28;48333;-60
2023/05/12 07:18:16;;;;;;;;;3.75;3.75;;;;;15.36;48.92;101061.50;5014697;28;45303;-60
2023/05/12 07:20:41;;;;;;;;;8.00;3.75;;;;;15.40;48.92;101065.47;5014542;28;45322;-60
2023/05/12 07:23:08;;;;;;;;;5.50;5.50;;;;;15.35;49.16;101065.31;5013285;28;45650;-60
2023/05/12 07:25:33;;;;;;;;;4.00;4.00;;;;;15.42;49.35;101068.84;5014296;28;45396;-60
2023/05/12 07:28:00;;;;;;;;;5.50;5.00;;;;;15.44;48.78;101063.94;5014437;28;45428;-60
2023/05/12 07:30:25;;;;;;;;;5.00;3.00;;;;;15.38;49.42;101048.28;5029520;28;45532;-61
2023/05/12 07:32:51;;;;;;;;;4.25;3.50;;;;;15.53;49.49;101058.91;5014317;28;45612;-61
2023/05/12 07:35:17;;;;;;;;;3.40;3.40;;;;;15.52;49.89;101059.97;5044979;28;45715;-62
2023/05/12 07:37:43;;;;;;;;;4.75;3.50;;;;;15.63;49.43;101061.91;5013724;28;45427;-61
2023/05/12 07:40:08;;;;;;;;;5.75;3.50;;;;;15.56;49.82;101063.94;5013896;28;45384;-61
2023/05/12 07:42:34;;;;;;;;;12.00;8.00;;;;;15.68;49.49;101052.88;5013171;28;45476;-62
2023/05/12 07:44:59;;;;;;;;;9.00;6.00;;;;;15.80;49.67;101055.69;5013681;28;47484;-61
2023/05/12 07:47:25;;;;;;;;;5.00;4.00;;;;;15.78;49.85;101055.06;5045574;28;45428;-62
2023/05/12 07:49:50;;;;;;;;;5.25;2.00;;;;;15.76;49.94;101051.69;5014002;28;45418;-62
2023/05/12 07:52:16;;;;;;;;;3.75;2.25;;;;;15.82;49.81;101065.44;4987422;28;45335;-63
2023/05/12 07:54:41;;;;;;;;;3.75;3.75;;;;;15.86;49.56;101049.19;4906456;28;46222;-62
2023/05/12 07:57:07;;;;;;;;;3.25;2.50;;;;;15.98;50.30;101052.84;4928534;28;45418;-62
2023/05/12 07:59:32;;;;;;;;;4.75;3.00;;;;;16.10;49.59;101057.50;4928167;28;45509;-62
2023/05/12 08:01:58;;;;;;;;;3.00;3.00;;;;;16.20;49.73;101054.13;4913435;28;45320;-62
2023/05/12 08:04:23;;;;;;;;;3.50;3.50;;;;;16.28;49.32;101053.78;4930482;28;46512;-62
2023/05/12 08:06:49;;;;;;;;;3.75;3.50;;;;;16.30;49.42;101039.66;5013851;28;45325;-63
2023/05/12 08:09:14;;;;;;;;;7.00;4.25;;;;;16.40;49.45;101056.53;5045733;28;45443;-62
2023/05/12 08:11:40;;;;;;;;;3.75;3.75;;;;;16.42;49.41;101045.22;5013655;28;45338;-62
2023/05/12 08:14:06;;;;;;;;;6.20;4.80;;;;;16.43;49.32;101055.19;5013400;28;46204;-61
2023/05/12 08:16:31;;;;;;;;;6.00;4.75;;;;;16.46;49.32;101046.38;5013061;28;45508;-61
2023/05/12 08:18:57;;;;;;;;;4.00;4.00;;;;;16.55;49.76;101050.47;5014024;28;45428;-61
2023/05/12 08:21:23;;;;;;;;;7.25;5.25;;;;;16.51;49.86;101043.72;5014085;28;45364;-61
2023/05/12 08:23:48;;;;;;;;;6.50;6.50;;;;;16.66;49.89;101054.31;4910917;28;45805;-61
2023/05/12 08:26:14;;;;;;;;;5.00;4.00;;;;;16.66;49.70;101046.00;4944368;28;45788;-60
2023/05/12 08:28:39;;;;;;;;;8.25;5.75;;;;;16.57;50.02;101031.66;4911000;28;45433;-59
2023/05/12 08:31:05;;;;;;;;;4.75;4.00;;;;;16.73;49.95;101062.47;4913887;28;45437;-60
2023/05/12 08:33:36;;;;;;;;;7.20;4.00;;;;;16.80;49.95;101069.56;4919278;28;45933;-60
2023/05/12 08:36:03;;;;;;;;;4.60;3.60;;;;;16.85;49.65;101060.50;4944280;28;45453;-62
2023/05/12 08:38:31;;;;;;;;;5.60;4.80;;;;;16.85;50.15;101066.03;4931002;28;45480;-61
2023/05/12 08:41:22;;;;;;;;;5.00;5.00;;;;;16.90;50.31;101071.69;4915141;28;45394;-61
2023/05/12 08:43:51;;;;;;;;;5.80;5.80;;;;;16.91;50.41;101065.06;4911233;28;47113;-59
2023/05/12 08:46:16;;;;;;;;;8.80;5.40;;;;;16.85;50.68;101071.59;4931756;28;46139;-59
2023/05/12 08:48:42;;;;;;;;;8.50;6.00;;;;;16.86;51.33;101069.66;4914293;28;45296;-59
2023/05/12 08:51:11;;;;;;;;;5.50;5.50;;;;;16.70;51.93;101065.72;4945237;28;45368;-59
2023/05/12 08:53:38;;;;;;;;;6.00;6.00;;;;;16.68;52.34;101079.84;4895175;28;46644;-59
2023/05/12 08:56:06;;;;;;;;;2.20;2.20;;;;;16.50;53.60;101075.28;4917175;28;45467;-59
2023/05/12 08:58:32;;;;;;;;;7.40;6.00;;;;;16.47;53.81;101084.06;4927446;28;45795;-59
2023/05/12 09:00:58;;;;;;;;;3.80;3.80;;;;;16.33;54.59;101067.72;4928862;28;45368;-59
2023/05/12 09:03:24;;;;;;;;;8.40;6.40;;;;;16.35;54.75;101089.66;4914272;28;45665;-59
2023/05/12 09:05:49;;;;;;;;;6.00;6.00;;;;;16.30;54.50;101087.59;4987728;28;45387;-59
2023/05/12 09:08:15;;;;;;;;;6.75;5.50;;;;;16.28;55.55;101080.63;5013932;28;45922;-59
2023/05/12 09:10:40;;;;;;;;;6.50;5.00;;;;;16.22;55.84;101087.97;4949935;28;45859;-59
2023/05/12 09:13:48;;;;;;;;;8.25;7.75;;;;;16.33;56.05;101091.81;4933426;28;46242;-60
2023/05/12 09:16:14;;;;;;;;;8.60;6.00;;;;;16.25;56.22;101074.50;4932432;28;45420;-60
2023/05/12 09:18:54;;;;;;;;;6.00;5.00;;;;;16.29;56.14;101079.53;4964424;28;45814;-60
2023/05/12 09:21:19;;;;;;;;;8.80;6.60;;;;;16.37;56.27;101088.31;4962583;28;45415;-60
2023/05/12 09:24:11;;;;;;;;;7.00;7.00;;;;;16.26;56.90;101098.34;4932883;28;46649;-60
2023/05/12 09:26:48;;;;;;;;;8.00;7.60;;;;;16.23;57.14;101089.66;4912274;28;45305;-60
2023/05/12 09:29:14;;;;;;;;;10.20;9.00;;;;;16.28;57.71;101092.56;4914994;28;45375;-61
2023/05/12 09:31:51;;;;;;;;;7.80;7.60;;;;;16.27;57.84;101093.63;4906540;28;45765;-61
2023/05/12 09:34:17;;;;;;;;;13.20;13.20;;;;;15.94;59.02;101072.91;4913399;28;46599;-60
2023/05/12 09:36:44;;;;;;;;;11.00;10.60;;;;;15.86;60.01;101088.75;4929176;28;45448;-61
2023/05/12 09:39:12;;;;;;;;;14.60;14.20;;;;;15.91;59.60;101085.28;4914621;28;45413;-60
2023/05/12 09:41:40;;;;;;;;;10.60;9.80;;;;;15.89;60.08;101090.22;4914334;28;45465;-60
2023/05/12 09:44:07;;;;;;;;;10.20;9.60;;;;;15.90;60.50;101091.91;4912996;28;47263;-59
2023/05/12 09:46:33;;;;;;;;;12.20;11.40;;;;;15.85;61.10;101089.03;4921652;28;45444;-60
2023/05/12 09:48:58;;;;;;;;;18.75;16.25;;;;;15.90;61.70;101096.59;4933131;28;45424;-59
2023/05/12 09:51:28;;;;;;;;;14.00;10.25;;;;;15.80;61.85;101084.19;4933091;28;45519;-59
2023/05/12 09:53:53;;;;;;;;;16.00;14.60;;;;;15.80;61.60;101086.13;4963665;28;46174;-60
2023/05/12 09:56:20;;;;;;;;;16.25;15.50;;;;;15.87;61.82;101078.53;4931417;28;45369;-61
2023/05/12 09:58:46;;;;;;;;;14.20;10.20;;;;;16.07;61.07;101091.22;4952754;28;45337;-63
2023/05/12 10:01:13;;;;;;;;;11.60;11.40;;;;;16.20;61.58;101093.75;4928926;28;45560;-61
2023/05/12 10:03:44;;;;;;;;;17.80;11.60;;;;;16.16;61.10;101061.25;4913548;28;46108;-61
2023/05/12 10:06:14;;;;;;;;;18.80;15.80;;;;;16.42;61.62;101084.00;4973063;28;45423;-61
2023/05/12 10:08:46;;;;;;;;;13.00;11.00;;;;;16.40;60.64;101092.53;5014312;28;45481;-61
2023/05/12 10:11:11;;;;;;;;;8.20;8.20;;;;;16.43;60.42;101096.75;4945453;28;45546;-62
2023/05/12 10:13:37;;;;;;;;;9.75;6.50;;;;;16.50;60.34;101087.19;4931461;28;46588;-62
2023/05/12 10:16:03;;;;;;;;;7.75;7.00;;;;;16.50;59.46;101086.38;4963499;28;45484;-60
2023/05/12 10:18:29;;;;;;;;;5.00;5.00;;;;;16.57;59.17;101087.09;4915253;28;45520;-61
2023/05/12 10:20:57;;;;;;;;;6.00;5.00;;;;;16.59;59.01;101084.91;4951172;28;45384;-61
2023/05/12 10:23:22;;;;;;;;;9.00;7.80;;;;;16.54;58.99;101084.78;4918834;28;46221;-61
2023/05/12 10:25:48;;;;;;;;;7.75;7.75;;;;;16.52;58.99;101087.81;4947857;28;45441;-61
2023/05/12 10:28:16;;;;;;;;;7.50;7.00;;;;;16.60;59.65;101081.03;5045850;28;45303;-62
2023/05/12 10:30:42;;;;;;;;;10.40;8.80;;;;;16.52;59.72;101085.06;5001029;28;45566;-60
2023/05/12 10:33:10;;;;;;;;;7.75;7.75;;;;;16.40;59.51;101076.75;4923312;28;45528;-61
2023/05/12 10:35:36;;;;;;;;;11.60;10.20;;;;;16.43;60.22;101085.66;4934075;28;45709;-61
2023/05/12 10:38:15;;;;;;;;;7.25;7.25;;;;;16.36;60.08;101070.03;4943962;28;45434;-61
2023/05/12 10:40:51;;;;;;;;;7.20;5.80;;;;;16.36;59.71;101074.72;4941360;28;45382;-62
2023/05/12 10:43:21;;;;;;;;;13.80;12.40;;;;;16.44;59.64;101077.09;4933272;28;45869;-62
2023/05/12 10:46:20;;;;;;;;;7.20;6.00;;;;;16.33;59.44;101080.75;4908071;28;45667;-62
2023/05/12 10:48:58;;;;;;;;;7.20;6.80;;;;;16.31;59.27;101089.28;4918565;28;45530;-63
2023/05/12 10:51:34;;;;;;;;;6.00;5.00;;;;;16.00;58.84;101044.28;4939809;28;45443;-61
2023/05/12 10:54:04;;;;;;;;;8.60;7.00;;;;;16.44;58.90;101077.09;4911968;28;47269;-63
2023/05/12 10:56:41;;;;;;;;;10.40;9.80;;;;;16.65;58.64;101075.63;4913240;28;45379;-63
2023/05/12 10:59:18;;;;;;;;;8.60;7.00;;;;;16.70;58.38;101077.66;4926865;28;45367;-63
2023/05/12 11:02:00;;;;;;;;;6.00;6.00;;;;;16.80;57.24;101077.00;4913451;28;45904;-64
2023/05/12 11:05:04;;;;;;;;;10.60;8.20;;;;;16.87;57.23;101074.13;4926508;28;46739;-65
2023/05/12 11:07:35;;;;;;;;;5.00;3.80;;;;;16.82;56.71;101049.91;4988012;28;45458;-63
2023/05/12 11:10:11;;;;;;;;;5.80;5.80;;;;;17.07;56.55;101068.16;5028617;28;45482;-63
2023/05/12 11:12:37;;;;;;;;;8.20;6.80;;;;;17.10;56.09;101058.50;4922616;28;45382;-62
2023/05/12 11:15:03;;;;;;;;;9.00;6.75;;;;;17.31;56.59;101065.28;4926958;28;46335;-61
2023/05/12 11:17:29;;;;;;;;;6.80;6.80;;;;;17.45;55.56;101060.25;4912434;28;45810;-61
2023/05/12 11:19:55;;;;;;;;;10.25;8.00;;;;;17.57;55.68;101068.50;4892081;28;45547;-58
2023/05/12 11:22:21;;;;;;;;;5.80;5.40;;;;;17.50;55.14;101062.28;4924834;28;45432;-61